Time;durP1;ratioP1;P1;durP2;ratioP2;P2;SDS_P1;SDS_P2;PMS_P1;PMS_P2;Temp;Humidity;BMP_temperature;BMP_pressure;BME280_temperature;BME280_humidity;BME280_pressure;Samples;Min_cycle;Max_cycle;Signal;HPM_P1;HPM_P2
2022/09/18 00:02:02;;;;;;;0.40;0.33;;;;;;;;;;5086702;28;20039;-66
2022/09/18 00:04:29;;;;;;;0.10;0.10;;;;;;;;;;5086452;28;20031;-68
2022/09/18 00:06:56;;;;;;;0.23;0.20;;;;;;;;;;5090960;28;20044;-67
2022/09/18 00:09:23;;;;;;;0.20;0.20;;;;;;;;;;5092021;28;20387;-67
2022/09/18 00:11:50;;;;;;;0.13;0.13;;;;;;;;;;5092196;28;20024;-67
2022/09/18 00:14:19;;;;;;;0.50;0.30;;;;;;;;;;5092229;28;20031;-67
2022/09/18 00:16:46;;;;;;;0.73;0.33;;;;;;;;;;5092429;28;20810;-69
2022/09/18 00:19:14;;;;;;;0.50;0.40;;;;;;;;;;5087517;28;20111;-68
2022/09/18 00:21:44;;;;;;;0.33;0.30;;;;;;;;;;5086237;28;20384;-68
2022/09/18 00:24:11;;;;;;;0.33;0.27;;;;;;;;;;5086700;28;20028;-68
2022/09/18 00:26:38;;;;;;;1.60;0.67;;;;;;;;;;5086407;28;20412;-67
2022/09/18 00:29:05;;;;;;;0.50;0.40;;;;;;;;;;5089843;28;20038;-67
2022/09/18 00:31:33;;;;;;;0.33;0.30;;;;;;;;;;5092440;28;20031;-66
2022/09/18 00:34:02;;;;;;;2.30;0.50;;;;;;;;;;5091690;28;20060;-66
2022/09/18 00:36:29;;;;;;;2.43;1.10;;;;;;;;;;5091857;28;20081;-66
2022/09/18 00:38:58;;;;;;;0.10;0.10;;;;;;;;;;5073602;28;20071;-66
2022/09/18 00:41:26;;;;;;;0.30;0.30;;;;;;;;;;5087921;28;20035;-66
2022/09/18 00:43:55;;;;;;;0.43;0.40;;;;;;;;;;5086131;28;20032;-66
2022/09/18 00:46:30;;;;;;;0.40;0.20;;;;;;;;;;5086582;28;20039;-66
2022/09/18 00:48:57;;;;;;;;;;;;;;;;;;5086798;28;20334;-66
2022/09/18 00:51:24;;;;;;;0.13;0.13;;;;;;;;;;5089671;28;19908;-67
2022/09/18 00:54:09;;;;;;;0.50;0.33;;;;;;;;;;5091755;28;20032;-66
2022/09/18 00:56:37;;;;;;;0.38;0.20;;;;;;;;;;5091899;28;20051;-66
2022/09/18 00:59:04;;;;;;;0.30;0.30;;;;;;;;;;5091777;28;20031;-65
2022/09/18 01:01:30;;;;;;;0.30;0.17;;;;;;;;;;5091922;28;20043;-66
2022/09/18 01:03:57;;;;;;;0.27;0.23;;;;;;;;;;5087082;28;20039;-66
2022/09/18 01:06:24;;;;;;;0.63;0.23;;;;;;;;;;5086481;28;20147;-66
2022/09/18 01:08:50;;;;;;;0.07;0.07;;;;;;;;;;5086343;28;20081;-66
2022/09/18 01:11:30;;;;;;;0.30;0.10;;;;;;;;;;5085977;28;20032;-66
2022/09/18 01:14:02;;;;;;;0.70;0.20;;;;;;;;;;5090289;28;20096;-66
2022/09/18 01:16:36;;;;;;;0.63;0.20;;;;;;;;;;5091963;28;20050;-66
2022/09/18 01:19:03;;;;;;;1.40;0.47;;;;;;;;;;5091609;28;20032;-66
2022/09/18 01:21:35;;;;;;;0.00;0.00;;;;;;;;;;5091371;28;20337;-66
2022/09/18 01:24:15;;;;;;;0.40;0.10;;;;;;;;;;5091620;28;20036;-66
2022/09/18 01:26:53;;;;;;;0.73;0.40;;;;;;;;;;5085905;28;20024;-66
2022/09/18 01:29:30;;;;;;;0.07;0.03;;;;;;;;;;5085809;28;20020;-66
2022/09/18 01:32:01;;;;;;;3.50;0.30;;;;;;;;;;5088358;28;20033;-66
2022/09/18 01:34:36;;;;;;;0.63;0.47;;;;;;;;;;5089595;28;20024;-66
2022/09/18 01:37:17;;;;;;;0.53;0.10;;;;;;;;;;5095322;28;20028;-66
2022/09/18 01:39:56;;;;;;;1.67;0.47;;;;;;;;;;5094488;28;20024;-67
2022/09/18 01:42:25;;;;;;;0.10;0.10;;;;;;;;;;5094968;28;20073;-65
2022/09/18 01:44:54;;;;;;;0.20;0.10;;;;;;;;;;5094771;28;20054;-65
2022/09/18 01:47:23;;;;;;;0.40;0.30;;;;;;;;;;5093202;28;20024;-66
2022/09/18 01:49:52;;;;;;;0.33;0.20;;;;;;;;;;5089357;28;20062;-66
2022/09/18 01:52:37;;;;;;;0.40;0.30;;;;;;;;;;5089615;28;20031;-65
2022/09/18 01:55:05;;;;;;;0.00;0.00;;;;;;;;;;5089077;28;20107;-66
2022/09/18 01:57:40;;;;;;;0.40;0.30;;;;;;;;;;5091458;28;20020;-66
2022/09/18 02:00:09;;;;;;;0.10;0.10;;;;;;;;;;5094534;28;20028;-65
2022/09/18 02:02:59;;;;;;;0.00;0.00;;;;;;;;;;5094966;28;20107;-65
2022/09/18 02:05:31;;;;;;;0.37;0.23;;;;;;;;;;5082128;28;20036;-65
2022/09/18 02:08:16;;;;;;;1.40;0.50;;;;;;;;;;5094932;28;20031;-65
2022/09/18 02:10:45;;;;;;;0.90;0.40;;;;;;;;;;5090536;28;20059;-66
2022/09/18 02:13:14;;;;;;;2.10;0.43;;;;;;;;;;5088878;28;20487;-66
2022/09/18 02:15:41;;;;;;;0.10;0.10;;;;;;;;;;5089160;28;20078;-66
2022/09/18 02:18:15;;;;;;;0.00;0.00;;;;;;;;;;5088946;28;20046;-66
2022/09/18 02:20:43;;;;;;;0.00;0.00;;;;;;;;;;5092669;28;20063;-66
2022/09/18 02:23:10;;;;;;;0.10;0.10;;;;;;;;;;5094608;28;20032;-66
2022/09/18 02:25:43;;;;;;;0.23;0.13;;;;;;;;;;5093573;28;20051;-65
2022/09/18 02:28:10;;;;;;;4.70;0.30;;;;;;;;;;5094036;28;20437;-67
2022/09/18 02:30:38;;;;;;;0.13;0.13;;;;;;;;;;5094321;28;20107;-66
2022/09/18 02:33:22;;;;;;;0.37;0.30;;;;;;;;;;5089482;28;20020;-66
2022/09/18 02:35:53;;;;;;;0.83;0.50;;;;;;;;;;5081285;28;20020;-65
2022/09/18 02:38:28;;;;;;;0.20;0.20;;;;;;;;;;5086804;28;20039;-66
2022/09/18 02:41:02;;;;;;;0.10;0.10;;;;;;;;;;5088208;28;20110;-66
2022/09/18 02:43:35;;;;;;;0.83;0.30;;;;;;;;;;5093118;28;20540;-66
2022/09/18 02:46:01;;;;;;;0.10;0.10;;;;;;;;;;5080855;28;20103;-66
2022/09/18 02:48:34;;;;;;;0.13;0.13;;;;;;;;;;5094014;28;20059;-66
2022/09/18 02:51:06;;;;;;;2.23;0.20;;;;;;;;;;5093974;28;20028;-66
2022/09/18 02:53:47;;;;;;;0.10;0.03;;;;;;;;;;5092484;28;20020;-66
2022/09/18 02:56:21;;;;;;;0.97;0.30;;;;;;;;;;5082773;28;20032;-65
2022/09/18 02:59:02;;;;;;;0.63;0.52;;;;;;;;;;5087446;28;20028;-66
2022/09/18 03:01:29;;;;;;;1.10;0.33;;;;;;;;;;5087452;28;20723;-66
2022/09/18 03:04:01;;;;;;;0.50;0.37;;;;;;;;;;5088390;28;20516;-66
2022/09/18 03:06:28;;;;;;;0.20;0.20;;;;;;;;;;5093070;28;20148;-65
2022/09/18 03:08:56;;;;;;;0.20;0.10;;;;;;;;;;5087200;28;20074;-66
2022/09/18 03:11:23;;;;;;;0.30;0.23;;;;;;;;;;5093034;28;20732;-65
2022/09/18 03:13:49;;;;;;;0.17;0.10;;;;;;;;;;5093187;28;20095;-66
2022/09/18 03:16:16;;;;;;;0.47;0.30;;;;;;;;;;5091757;28;20519;-66
2022/09/18 03:18:43;;;;;;;0.10;0.10;;;;;;;;;;5087291;28;20103;-66
2022/09/18 03:21:09;;;;;;;0.63;0.33;;;;;;;;;;5088253;28;20036;-65
2022/09/18 03:23:36;;;;;;;0.30;0.30;;;;;;;;;;5086901;28;20022;-66
2022/09/18 03:26:03;;;;;;;0.30;0.30;;;;;;;;;;5088078;28;20450;-66
2022/09/18 03:28:33;;;;;;;0.40;0.27;;;;;;;;;;5089982;28;20592;-66
2022/09/18 03:31:00;;;;;;;0.30;0.20;;;;;;;;;;5085218;28;20099;-66
2022/09/18 03:33:26;;;;;;;0.23;0.17;;;;;;;;;;5092500;28;20494;-66
2022/09/18 03:35:53;;;;;;;0.50;0.20;;;;;;;;;;5092591;28;20478;-66
2022/09/18 03:38:20;;;;;;;7.10;0.70;;;;;;;;;;5091202;28;20069;-66
2022/09/18 03:40:46;;;;;;;0.70;0.50;;;;;;;;;;5086912;28;20031;-66
2022/09/18 03:43:13;;;;;;;0.30;0.30;;;;;;;;;;5087487;28;20027;-66
2022/09/18 03:45:40;;;;;;;1.53;0.50;;;;;;;;;;5087662;28;20031;-66
2022/09/18 03:48:06;;;;;;;1.17;0.53;;;;;;;;;;5087293;28;20043;-66
2022/09/18 03:50:33;;;;;;;0.70;0.47;;;;;;;;;;5084570;28;20020;-66
2022/09/18 03:53:00;;;;;;;0.80;0.67;;;;;;;;;;5088671;28;20506;-66
2022/09/18 03:55:26;;;;;;;0.27;0.27;;;;;;;;;;5091754;28;20028;-66
2022/09/18 03:57:53;;;;;;;0.20;0.20;;;;;;;;;;5091601;28;20020;-67
2022/09/18 04:00:20;;;;;;;0.37;0.27;;;;;;;;;;5091214;28;20024;-66
2022/09/18 04:02:46;;;;;;;0.40;0.30;;;;;;;;;;5081999;28;20067;-66
2022/09/18 04:05:14;;;;;;;0.20;0.20;;;;;;;;;;5086503;28;20095;-66
2022/09/18 04:07:40;;;;;;;0.27;0.20;;;;;;;;;;5087311;28;20028;-66
2022/09/18 04:10:07;;;;;;;0.23;0.20;;;;;;;;;;5086181;28;20024;-68
2022/09/18 04:12:34;;;;;;;0.10;0.10;;;;;;;;;;5092013;28;20103;-65
2022/09/18 04:15:01;;;;;;;0.30;0.30;;;;;;;;;;5092413;28;20546;-66
2022/09/18 04:17:28;;;;;;;0.87;0.43;;;;;;;;;;5073557;28;20429;-66
2022/09/18 04:19:55;;;;;;;1.07;0.20;;;;;;;;;;5090813;28;20020;-65
2022/09/18 04:22:22;;;;;;;0.10;0.10;;;;;;;;;;5087928;28;20111;-65
2022/09/18 04:24:49;;;;;;;0.30;0.30;;;;;;;;;;5073046;28;20024;-66
2022/09/18 04:27:16;;;;;;;0.30;0.30;;;;;;;;;;5084970;28;20024;-66
2022/09/18 04:29:43;;;;;;;1.80;0.53;;;;;;;;;;5086071;28;20047;-66
2022/09/18 04:32:09;;;;;;;0.20;0.20;;;;;;;;;;5086134;28;20081;-67
2022/09/18 04:34:36;;;;;;;0.20;0.20;;;;;;;;;;5090323;28;20035;-66
2022/09/18 04:37:03;;;;;;;0.90;0.60;;;;;;;;;;5086294;28;20040;-68
2022/09/18 04:39:31;;;;;;;0.70;0.60;;;;;;;;;;5090405;28;20062;-66
2022/09/18 04:41:58;;;;;;;0.17;0.17;;;;;;;;;;5091815;28;20427;-66
2022/09/18 04:44:25;;;;;;;0.50;0.27;;;;;;;;;;5092037;28;20029;-66
2022/09/18 04:46:51;;;;;;;0.47;0.40;;;;;;;;;;5086385;28;20036;-66
2022/09/18 04:49:18;;;;;;;0.20;0.20;;;;;;;;;;5086865;28;20059;-66
2022/09/18 04:51:45;;;;;;;0.23;0.20;;;;;;;;;;5086290;28;20506;-66
2022/09/18 04:54:11;;;;;;;0.70;0.47;;;;;;;;;;5086345;28;20352;-67
2022/09/18 04:56:39;;;;;;;0.30;0.30;;;;;;;;;;5090910;28;20020;-66
2022/09/18 04:59:06;;;;;;;0.60;0.33;;;;;;;;;;5092147;28;20020;-66
2022/09/18 05:01:33;;;;;;;0.23;0.23;;;;;;;;;;5091746;28;20032;-65
2022/09/18 05:04:00;;;;;;;1.30;0.80;;;;;;;;;;5091872;28;20081;-66
2022/09/18 05:06:26;;;;;;;4.10;0.73;;;;;;;;;;5092834;28;20479;-66
2022/09/18 05:08:53;;;;;;;0.30;0.20;;;;;;;;;;5072845;28;20445;-66
2022/09/18 05:11:20;;;;;;;0.10;0.10;;;;;;;;;;5090161;28;20374;-66
2022/09/18 05:13:55;;;;;;;0.40;0.40;;;;;;;;;;5090217;28;20035;-66
2022/09/18 05:16:25;;;;;;;0.43;0.33;;;;;;;;;;5089901;28;20028;-67
2022/09/18 05:18:52;;;;;;;0.70;0.40;;;;;;;;;;5094647;28;20012;-66
2022/09/18 05:21:19;;;;;;;0.67;0.40;;;;;;;;;;5095415;28;20387;-66
2022/09/18 05:23:46;;;;;;;0.80;0.60;;;;;;;;;;5095392;28;20031;-67
2022/09/18 05:26:13;;;;;;;0.30;0.30;;;;;;;;;;5095040;28;20067;-66
2022/09/18 05:28:40;;;;;;;0.20;0.20;;;;;;;;;;5095686;28;20463;-66
2022/09/18 05:31:07;;;;;;;0.40;0.40;;;;;;;;;;5090913;28;20016;-66
2022/09/18 05:33:35;;;;;;;0.47;0.27;;;;;;;;;;5090165;28;20031;-66
2022/09/18 05:36:04;;;;;;;0.17;0.17;;;;;;;;;;5090027;28;20032;-67
2022/09/18 05:38:30;;;;;;;0.30;0.30;;;;;;;;;;5089165;28;20055;-66
2022/09/18 05:41:00;;;;;;;0.53;0.40;;;;;;;;;;5093566;28;20022;-66
2022/09/18 05:43:27;;;;;;;0.63;0.37;;;;;;;;;;5094911;28;20082;-66
2022/09/18 05:45:54;;;;;;;0.23;0.17;;;;;;;;;;5095214;28;20027;-66
2022/09/18 05:48:21;;;;;;;0.77;0.40;;;;;;;;;;5094991;28;20526;-66
2022/09/18 05:50:50;;;;;;;1.13;0.80;;;;;;;;;;5095002;28;20458;-66
2022/09/18 05:53:18;;;;;;;0.73;0.60;;;;;;;;;;5090246;28;20028;-67
2022/09/18 05:55:45;;;;;;;0.30;0.30;;;;;;;;;;5089517;28;20074;-66
2022/09/18 05:58:13;;;;;;;0.20;0.20;;;;;;;;;;5089578;28;20474;-66
2022/09/18 06:00:39;;;;;;;0.67;0.47;;;;;;;;;;5089255;28;20024;-66
2022/09/18 06:03:07;;;;;;;0.40;0.30;;;;;;;;;;5093086;28;20047;-66
2022/09/18 06:05:35;;;;;;;2.13;0.30;;;;;;;;;;5094462;28;20066;-67
2022/09/18 06:08:02;;;;;;;0.40;0.40;;;;;;;;;;5094072;28;21785;-67
2022/09/18 06:10:29;;;;;;;0.97;0.40;;;;;;;;;;5076088;28;20375;-66
2022/09/18 06:13:06;;;;;;;0.40;0.33;;;;;;;;;;5094488;28;20024;-66
2022/09/18 06:15:33;;;;;;;0.50;0.30;;;;;;;;;;5090207;28;20032;-66
2022/09/18 06:18:00;;;;;;;0.17;0.17;;;;;;;;;;5088224;28;20024;-66
2022/09/18 06:20:27;;;;;;;0.50;0.40;;;;;;;;;;5089209;28;20024;-66
2022/09/18 06:22:54;;;;;;;0.40;0.40;;;;;;;;;;5088613;28;20042;-67
2022/09/18 06:25:22;;;;;;;0.10;0.10;;;;;;;;;;5092616;28;20555;-66
2022/09/18 06:27:53;;;;;;;0.70;0.50;;;;;;;;;;5094520;28;20153;-66
2022/09/18 06:30:20;;;;;;;1.80;0.40;;;;;;;;;;5094032;28;20111;-66
2022/09/18 06:32:46;;;;;;;0.00;0.00;;;;;;;;;;5094453;28;20055;-66
2022/09/18 06:35:13;;;;;;;2.97;0.57;;;;;;;;;;5094052;28;20081;-66
2022/09/18 06:37:40;;;;;;;0.10;0.10;;;;;;;;;;5089691;28;20027;-66
2022/09/18 06:40:07;;;;;;;0.47;0.30;;;;;;;;;;5088475;28;20070;-66
2022/09/18 06:42:33;;;;;;;1.60;0.40;;;;;;;;;;5088476;28;20036;-66
2022/09/18 06:45:00;;;;;;;0.27;0.20;;;;;;;;;;5088744;28;20036;-66
2022/09/18 06:47:26;;;;;;;0.43;0.43;;;;;;;;;;5091578;28;20024;-66
2022/09/18 06:49:53;;;;;;;0.20;0.20;;;;;;;;;;5094543;28;20347;-66
2022/09/18 06:52:20;;;;;;;0.40;0.30;;;;;;;;;;5093566;28;20531;-66
2022/09/18 06:54:46;;;;;;;0.10;0.10;;;;;;;;;;5093603;28;20479;-66
2022/09/18 06:57:13;;;;;;;0.37;0.23;;;;;;;;;;5093453;28;20081;-66
2022/09/18 06:59:40;;;;;;;0.67;0.30;;;;;;;;;;5090602;28;20091;-67
2022/09/18 07:02:12;;;;;;;0.33;0.30;;;;;;;;;;5088068;28;20044;-66
2022/09/18 07:04:39;;;;;;;0.10;0.10;;;;;;;;;;5088421;28;20494;-67
2022/09/18 07:07:06;;;;;;;0.13;0.13;;;;;;;;;;5088013;28;20089;-66
2022/09/18 07:09:33;;;;;;;0.20;0.20;;;;;;;;;;5090730;28;20027;-67
2022/09/18 07:12:00;;;;;;;0.77;0.37;;;;;;;;;;5092873;28;20016;-66
2022/09/18 07:14:26;;;;;;;0.60;0.33;;;;;;;;;;5093355;28;20391;-66
2022/09/18 07:16:54;;;;;;;12.83;0.93;;;;;;;;;;5093308;28;20374;-66
2022/09/18 07:19:21;;;;;;;0.20;0.13;;;;;;;;;;5093637;28;20497;-66
2022/09/18 07:21:47;;;;;;;1.03;0.27;;;;;;;;;;5090102;28;20028;-66
2022/09/18 07:24:14;;;;;;;0.73;0.30;;;;;;;;;;5087517;28;20039;-67
2022/09/18 07:26:41;;;;;;;0.00;0.00;;;;;;;;;;5087856;28;20027;-66
2022/09/18 07:29:07;;;;;;;1.27;0.27;;;;;;;;;;5087900;28;20032;-66
2022/09/18 07:31:37;;;;;;;7.90;0.80;;;;;;;;;;5090109;28;20099;-66
2022/09/18 07:34:03;;;;;;;0.07;0.07;;;;;;;;;;5092879;28;20028;-66
2022/09/18 07:36:31;;;;;;;0.00;0.00;;;;;;;;;;5092855;28;20016;-66
2022/09/18 07:38:58;;;;;;;1.50;0.40;;;;;;;;;;5093125;28;20529;-66
2022/09/18 07:41:24;;;;;;;0.37;0.17;;;;;;;;;;5092425;28;20028;-66
2022/09/18 07:43:51;;;;;;;0.10;0.10;;;;;;;;;;5089813;28;20399;-66
2022/09/18 07:46:18;;;;;;;0.50;0.27;;;;;;;;;;5087545;28;20024;-66
2022/09/18 07:48:44;;;;;;;0.57;0.17;;;;;;;;;;5087360;28;20089;-66
2022/09/18 07:51:11;;;;;;;1.67;0.53;;;;;;;;;;5087128;28;20527;-66
2022/09/18 07:53:38;;;;;;;0.30;0.30;;;;;;;;;;5089510;28;20047;-66
2022/09/18 07:56:10;;;;;;;0.00;0.00;;;;;;;;;;5092320;28;20039;-66
2022/09/18 07:58:37;;;;;;;0.73;0.53;;;;;;;;;;5092541;28;20160;-66
2022/09/18 08:01:05;;;;;;;0.00;0.00;;;;;;;;;;5092125;28;20035;-66
2022/09/18 08:03:32;;;;;;;1.30;0.40;;;;;;;;;;5092395;28;20024;-66
2022/09/18 08:05:58;;;;;;;2.37;0.80;;;;;;;;;;5089620;28;20020;-66
2022/09/18 08:08:25;;;;;;;0.40;0.30;;;;;;;;;;5087271;28;20035;-66
2022/09/18 08:10:52;;;;;;;0.70;0.20;;;;;;;;;;5086797;28;20123;-66
2022/09/18 08:13:19;;;;;;;0.13;0.10;;;;;;;;;;5087064;28;20085;-66
2022/09/18 08:15:45;;;;;;;0.67;0.23;;;;;;;;;;5088340;28;20096;-66
2022/09/18 08:18:12;;;;;;;0.10;0.10;;;;;;;;;;5092281;28;20036;-66
2022/09/18 08:20:39;;;;;;;0.27;0.20;;;;;;;;;;5092238;28;20165;-66
2022/09/18 08:23:08;;;;;;;0.23;0.20;;;;;;;;;;5092286;28;20043;-66
2022/09/18 08:25:36;;;;;;;0.30;0.23;;;;;;;;;;5092237;28;20020;-66
2022/09/18 08:28:03;;;;;;;0.17;0.13;;;;;;;;;;5090299;28;20020;-66
2022/09/18 08:30:30;;;;;;;0.33;0.33;;;;;;;;;;5086815;28;20398;-66
2022/09/18 08:33:03;;;;;;;0.83;0.40;;;;;;;;;;5086609;28;20028;-66
2022/09/18 08:35:30;;;;;;;0.00;0.00;;;;;;;;;;5069822;28;20107;-66
2022/09/18 08:37:58;;;;;;;0.83;0.47;;;;;;;;;;5088040;28;20027;-66
2022/09/18 08:40:37;;;;;;;0.73;0.27;;;;;;;;;;5091641;28;20031;-66
2022/09/18 08:43:12;;;;;;;1.07;0.20;;;;;;;;;;5096421;28;20024;-66
2022/09/18 08:45:38;;;;;;;;;;;;;;;;;;5096246;28;20017;-66
2022/09/18 08:48:31;;;;;;;0.00;0.00;;;;;;;;;;5096252;28;19916;-66
2022/09/18 08:51:12;;;;;;;0.03;0.03;;;;;;;;;;5088998;28;20040;-67
2022/09/18 08:53:41;;;;;;;0.00;0.00;;;;;;;;;;5090799;28;20024;-65
2022/09/18 08:56:12;;;;;;;1.07;0.30;;;;;;;;;;5090757;28;20024;-66
2022/09/18 08:58:59;;;;;;;1.60;0.33;;;;;;;;;;5090531;28;20028;-65
2022/09/18 09:01:29;;;;;;;0.20;0.10;;;;;;;;;;5094885;28;20036;-66
2022/09/18 09:04:05;;;;;;;0.10;0.10;;;;;;;;;;5095913;28;20502;-65
2022/09/18 09:06:47;;;;;;;0.57;0.33;;;;;;;;;;5095091;28;20017;-65
2022/09/18 09:09:15;;;;;;;0.10;0.10;;;;;;;;;;5095791;28;20466;-66
2022/09/18 09:11:50;;;;;;;2.70;0.10;;;;;;;;;;5095666;28;20038;-66
2022/09/18 09:14:24;;;;;;;0.00;0.00;;;;;;;;;;5090544;28;20051;-66
2022/09/18 09:16:54;;;;;;;0.00;0.00;;;;;;;;;;5089653;28;20023;-66
2022/09/18 09:19:32;;;;;;;0.10;0.10;;;;;;;;;;5090286;28;20085;-66
2022/09/18 09:22:02;;;;;;;0.97;0.30;;;;;;;;;;5090974;28;20050;-66
2022/09/18 09:24:34;;;;;;;2.43;0.23;;;;;;;;;;5095449;28;20020;-66
2022/09/18 09:27:05;;;;;;;0.53;0.10;;;;;;;;;;5095177;28;20024;-66
2022/09/18 09:29:35;;;;;;;1.33;0.30;;;;;;;;;;5095554;28;20036;-66
2022/09/18 09:32:27;;;;;;;0.67;0.30;;;;;;;;;;5095580;28;20032;-66
2022/09/18 09:35:12;;;;;;;0.50;0.20;;;;;;;;;;5085191;28;20051;-66
2022/09/18 09:37:42;;;;;;;0.10;0.10;;;;;;;;;;5090031;28;20502;-66
2022/09/18 09:40:16;;;;;;;0.80;0.30;;;;;;;;;;5089724;28;20028;-66
2022/09/18 09:42:52;;;;;;;0.50;0.40;;;;;;;;;;5089491;28;20036;-66
2022/09/18 09:45:28;;;;;;;3.37;2.93;;;;;;;;;;5092696;28;20046;-66
2022/09/18 09:47:54;;;;;;;5.13;2.93;;;;;;;;;;5091810;28;20016;-66
2022/09/18 09:50:36;;;;;;;4.00;3.37;;;;;;;;;;5095162;28;20023;-66
2022/09/18 09:53:06;;;;;;;3.63;2.10;;;;;;;;;;5094578;28;20115;-66
2022/09/18 09:55:37;;;;;;;3.43;0.83;;;;;;;;;;5094974;28;20054;-66
2022/09/18 09:58:10;;;;;;;1.50;0.50;;;;;;;;;;5090183;28;20024;-66
2022/09/18 10:00:42;;;;;;;0.33;0.30;;;;;;;;;;5089362;28;20028;-66
2022/09/18 10:03:20;;;;;;;0.87;0.63;;;;;;;;;;5089024;28;20032;-66
2022/09/18 10:05:50;;;;;;;1.87;1.57;;;;;;;;;;5089497;28;20023;-66
2022/09/18 10:08:35;;;;;;;7.73;4.50;;;;;;;;;;5094080;28;20099;-66
2022/09/18 10:11:07;;;;;;;12.00;8.57;;;;;;;;;;5094949;28;20035;-66
2022/09/18 10:13:39;;;;;;;10.10;8.40;;;;;;;;;;5094446;28;20409;-66
2022/09/18 10:16:12;;;;;;;7.90;7.13;;;;;;;;;;5094391;28;20415;-66
2022/09/18 10:18:40;;;;;;;7.57;6.03;;;;;;;;;;5093401;28;20040;-66
2022/09/18 10:21:15;;;;;;;9.13;4.43;;;;;;;;;;5089167;28;20027;-65
2022/09/18 10:23:47;;;;;;;3.53;2.80;;;;;;;;;;5089394;28;20046;-66
2022/09/18 10:26:40;;;;;;;2.53;2.13;;;;;;;;;;5089248;28;20028;-66
2022/09/18 10:29:09;;;;;;;1.87;1.27;;;;;;;;;;5059684;28;20376;-66
2022/09/18 10:31:56;;;;;;;5.30;1.70;;;;;;;;;;5094070;28;20475;-66
2022/09/18 10:34:41;;;;;;;6.73;3.47;;;;;;;;;;5094344;28;20386;-66
2022/09/18 10:37:29;;;;;;;1.75;1.38;;;;;;;;;;5093897;28;20034;-66
2022/09/18 10:39:56;;;;;;;1.87;1.27;;;;;;;;;;5094206;28;20028;-66
2022/09/18 10:42:24;;;;;;;1.07;0.80;;;;;;;;;;5089614;28;20027;-67
2022/09/18 10:44:57;;;;;;;5.33;0.80;;;;;;;;;;5088695;28;20030;-66
2022/09/18 10:47:28;;;;;;;2.17;0.70;;;;;;;;;;5088533;28;20020;-66
2022/09/18 10:50:00;;;;;;;1.43;0.70;;;;;;;;;;5087738;28;20067;-67
2022/09/18 10:52:36;;;;;;;0.27;0.20;;;;;;;;;;5092577;28;20824;-66
2022/09/18 10:55:03;;;;;;;0.30;0.30;;;;;;;;;;5093973;28;20069;-66
2022/09/18 10:57:32;;;;;;;1.70;0.50;;;;;;;;;;5093815;28;20430;-66
2022/09/18 10:59:59;;;;;;;0.83;0.40;;;;;;;;;;5093857;28;20103;-66
2022/09/18 11:02:27;;;;;;;0.47;0.20;;;;;;;;;;5093101;28;20036;-66
2022/09/18 11:04:54;;;;;;;1.67;0.40;;;;;;;;;;5088431;28;20020;-67
2022/09/18 11:07:22;;;;;;;0.40;0.30;;;;;;;;;;5087869;28;20103;-66
2022/09/18 11:09:50;;;;;;;0.93;0.20;;;;;;;;;;5088184;28;20031;-66
2022/09/18 11:12:22;;;;;;;0.00;0.00;;;;;;;;;;5088118;28;20463;-66
2022/09/18 11:15:08;;;;;;;0.10;0.10;;;;;;;;;;5092444;28;20451;-66
2022/09/18 11:17:37;;;;;;;0.73;0.37;;;;;;;;;;5093314;28;20374;-66
2022/09/18 11:20:05;;;;;;;0.10;0.10;;;;;;;;;;5093204;28;20109;-66
2022/09/18 11:22:40;;;;;;;0.10;0.10;;;;;;;;;;5085119;28;20036;-66
2022/09/18 11:25:16;;;;;;;0.28;0.20;;;;;;;;;;5092324;28;20032;-67
2022/09/18 11:27:46;;;;;;;0.47;0.10;;;;;;;;;;5087781;28;20051;-66
2022/09/18 11:30:14;;;;;;;0.00;0.00;;;;;;;;;;5087989;28;20059;-66
2022/09/18 11:32:45;;;;;;;0.47;0.17;;;;;;;;;;5069960;28;20476;-66
2022/09/18 11:35:16;;;;;;;0.10;0.00;;;;;;;;;;5088086;28;20134;-66
2022/09/18 11:37:49;;;;;;;0.37;0.20;;;;;;;;;;5092686;28;20027;-66
2022/09/18 11:40:18;;;;;;;0.00;0.00;;;;;;;;;;5093086;28;20027;-67
2022/09/18 11:42:51;;;;;;;1.70;0.20;;;;;;;;;;5092816;28;20036;-66
2022/09/18 11:45:29;;;;;;;3.00;0.30;;;;;;;;;;5093167;28;20028;-66
2022/09/18 11:47:59;;;;;;;2.00;0.10;;;;;;;;;;5081893;28;20049;-66
2022/09/18 11:50:29;;;;;;;0.00;0.00;;;;;;;;;;5087267;28;20020;-66
2022/09/18 11:53:05;;;;;;;0.77;0.33;;;;;;;;;;5087393;28;20509;-66
2022/09/18 11:55:37;;;;;;;3.10;0.40;;;;;;;;;;5087693;28;20090;-66
2022/09/18 11:58:05;;;;;;;0.97;0.27;;;;;;;;;;5088651;28;20115;-66
2022/09/18 12:00:36;;;;;;;0.50;0.17;;;;;;;;;;5092776;28;20097;-66
2022/09/18 12:03:24;;;;;;;0.37;0.10;;;;;;;;;;5092600;28;20040;-66
2022/09/18 12:05:55;;;;;;;0.20;0.20;;;;;;;;;;5092307;28;20111;-66
2022/09/18 12:08:22;;;;;;;0.10;0.10;;;;;;;;;;5092344;28;20093;-66
2022/09/18 12:11:08;;;;;;;1.50;0.50;;;;;;;;;;5089559;28;20679;-66
2022/09/18 12:13:50;;;;;;;0.10;0.10;;;;;;;;;;5087071;28;20771;-66
2022/09/18 12:16:39;;;;;;;0.83;0.30;;;;;;;;;;5085572;28;20030;-66
2022/09/18 12:19:10;;;;;;;0.47;0.33;;;;;;;;;;5067078;28;20502;-67
2022/09/18 12:21:41;;;;;;;21.43;0.47;;;;;;;;;;5084900;28;20032;-66
2022/09/18 12:24:17;;;;;;;1.23;0.10;;;;;;;;;;5091765;28;20020;-66
2022/09/18 12:26:53;;;;;;;0.60;0.23;;;;;;;;;;5091825;28;20027;-67
2022/09/18 12:29:39;;;;;;;0.20;0.13;;;;;;;;;;5092508;28;20020;-66
2022/09/18 12:32:05;;;;;;;;;;;;;;;;;;5090707;28;20374;-67
2022/09/18 12:34:47;;;;;;;3.50;0.33;;;;;;;;;;5087128;28;19904;-66
2022/09/18 12:37:26;;;;;;;0.00;0.00;;;;;;;;;;5086746;28;20032;-66
2022/09/18 12:40:15;;;;;;;0.20;0.20;;;;;;;;;;5086862;28;20482;-66
2022/09/18 12:43:00;;;;;;;0.30;0.23;;;;;;;;;;5088837;28;20239;-66
2022/09/18 12:45:43;;;;;;;0.57;0.38;;;;;;;;;;5092364;28;20475;-66
2022/09/18 12:48:18;;;;;;;0.13;0.07;;;;;;;;;;5091714;28;20063;-66
2022/09/18 12:50:52;;;;;;;0.03;0.03;;;;;;;;;;5092293;28;20028;-67
2022/09/18 12:53:29;;;;;;;0.20;0.20;;;;;;;;;;5092129;28;20059;-66
2022/09/18 12:56:13;;;;;;;3.87;0.53;;;;;;;;;;5086463;28;20028;-66
2022/09/18 12:59:19;;;;;;;0.20;0.15;;;;;;;;;;5086258;28;20016;-66
2022/09/18 13:02:08;;;;;;;0.43;0.20;;;;;;;;;;5022512;28;20540;-66
2022/09/18 13:05:04;;;;;;;0.80;0.30;;;;;;;;;;5020312;28;20119;-66
2022/09/18 13:07:34;;;;;;;0.10;0.05;;;;;;;;;;5075517;28;20040;-66
2022/09/18 13:10:01;;;;;;;0.00;0.00;;;;;;;;;;5091755;28;20024;-66
2022/09/18 13:12:42;;;;;;;0.30;0.20;;;;;;;;;;5091839;28;20048;-67
2022/09/18 13:15:20;;;;;;;0.00;0.00;;;;;;;;;;5091293;28;20039;-66
2022/09/18 13:17:50;;;;;;;0.00;0.00;;;;;;;;;;5087762;28;20028;-67
2022/09/18 13:20:27;;;;;;;0.10;0.10;;;;;;;;;;5066726;28;20480;-67
2022/09/18 13:22:54;;;;;;;0.73;0.37;;;;;;;;;;5076905;28;20260;-67
2022/09/18 13:25:30;;;;;;;0.87;0.40;;;;;;;;;;5086020;28;20092;-67
2022/09/18 13:27:57;;;;;;;6.77;0.43;;;;;;;;;;5091715;28;20020;-68
2022/09/18 13:30:28;;;;;;;0.97;0.70;;;;;;;;;;5095512;28;20024;-66
2022/09/18 13:32:56;;;;;;;1.30;0.83;;;;;;;;;;5095219;28;20082;-66
2022/09/18 13:35:28;;;;;;;2.40;1.50;;;;;;;;;;5094934;28;20019;-66
2022/09/18 13:38:03;;;;;;;1.77;1.07;;;;;;;;;;5094585;28;20375;-67
2022/09/18 13:40:40;;;;;;;1.10;0.90;;;;;;;;;;5075744;28;20049;-66
2022/09/18 13:43:15;;;;;;;1.60;1.00;;;;;;;;;;5089411;28;20080;-66
2022/09/18 13:45:41;;;;;;;1.33;0.90;;;;;;;;;;5088899;28;20056;-66
2022/09/18 13:48:20;;;;;;;1.23;0.90;;;;;;;;;;5089340;28;20501;-66
2022/09/18 13:50:53;;;;;;;0.80;0.63;;;;;;;;;;5093722;28;20021;-66
2022/09/18 13:53:33;;;;;;;0.90;0.80;;;;;;;;;;5094553;28;20020;-66
2022/09/18 13:56:00;;;;;;;0.67;0.57;;;;;;;;;;5092202;28;20478;-69
2022/09/18 13:58:33;;;;;;;1.57;1.00;;;;;;;;;;5093977;28;20055;-66
2022/09/18 14:01:04;;;;;;;0.63;0.60;;;;;;;;;;5093505;28;20020;-68
2022/09/18 14:03:33;;;;;;;1.50;1.10;;;;;;;;;;5088690;28;20044;-65
2022/09/18 14:06:00;;;;;;;1.43;1.10;;;;;;;;;;5088331;28;20028;-67
2022/09/18 14:08:27;;;;;;;1.83;0.97;;;;;;;;;;5088882;28;20016;-66
2022/09/18 14:10:57;;;;;;;1.47;0.90;;;;;;;;;;5089613;28;20024;-66
2022/09/18 14:13:29;;;;;;;4.77;1.43;;;;;;;;;;5093924;28;20059;-67
2022/09/18 14:15:58;;;;;;;1.80;1.30;;;;;;;;;;5093873;28;20047;-66
2022/09/18 14:18:39;;;;;;;2.53;1.47;;;;;;;;;;5093704;28;20028;-66
2022/09/18 14:21:18;;;;;;;1.87;1.43;;;;;;;;;;5093833;28;20032;-65
2022/09/18 14:23:45;;;;;;;2.30;1.60;;;;;;;;;;5091507;28;20036;-66
2022/09/18 14:26:36;;;;;;;2.13;0.87;;;;;;;;;;5087728;28;20027;-65
2022/09/18 14:29:13;;;;;;;1.57;0.60;;;;;;;;;;5087639;28;20487;-64
2022/09/18 14:32:12;;;;;;;2.53;0.60;;;;;;;;;;5068945;28;20036;-65
2022/09/18 14:34:40;;;;;;;0.60;0.50;;;;;;;;;;5048154;28;20032;-65
2022/09/18 14:37:16;;;;;;;0.30;0.30;;;;;;;;;;5094053;28;20056;-65
2022/09/18 14:39:43;;;;;;;0.20;0.20;;;;;;;;;;5092879;28;20113;-65
2022/09/18 14:42:30;;;;;;;0.70;0.40;;;;;;;;;;5094011;28;20036;-65
2022/09/18 14:45:08;;;;;;;0.23;0.20;;;;;;;;;;5093531;28;20020;-67
2022/09/18 14:47:35;;;;;;;0.20;0.20;;;;;;;;;;5088113;28;20032;-67
2022/09/18 14:50:01;;;;;;;0.20;0.20;;;;;;;;;;5088411;28;20024;-66
2022/09/18 14:52:30;;;;;;;0.23;0.20;;;;;;;;;;5088157;28;20065;-67
2022/09/18 14:54:58;;;;;;;0.70;0.47;;;;;;;;;;5088197;28;20020;-67
2022/09/18 14:57:28;;;;;;;1.03;0.43;;;;;;;;;;5092752;28;20024;-67
2022/09/18 14:59:56;;;;;;;1.10;0.40;;;;;;;;;;5093408;28;20482;-67
2022/09/18 15:02:27;;;;;;;0.70;0.43;;;;;;;;;;5093612;28;20060;-66
2022/09/18 15:04:54;;;;;;;0.10;0.10;;;;;;;;;;5093184;28;20020;-66
2022/09/18 15:07:22;;;;;;;0.50;0.30;;;;;;;;;;5093426;28;20020;-67